createdAt,value
2023-11-02T00:02:23.461Z,10.50
2023-11-02T00:04:51.947Z,8.82
2023-11-02T00:07:19.750Z,13.38
2023-11-02T00:09:47.573Z,10.15
2023-11-02T00:12:31.554Z,10.20
2023-11-02T00:15:01.538Z,12.05
2023-11-02T00:17:38.627Z,7.40
2023-11-02T00:20:09.413Z,9.48
2023-11-02T00:22:44.936Z,9.65
2023-11-02T00:25:37.966Z,12.50
2023-11-02T00:28:05.444Z,10.45
2023-11-02T00:30:32.557Z,12.65
2023-11-02T00:32:59.960Z,10.15
2023-11-02T00:35:27.179Z,11.75
2023-11-02T00:37:54.336Z,9.90
2023-11-02T00:40:21.885Z,7.78
2023-11-02T00:42:52.503Z,9.77
2023-11-02T00:45:19.768Z,9.50
2023-11-02T00:47:46.944Z,10.70
2023-11-02T00:50:38.981Z,10.57
2023-11-02T00:53:07.498Z,8.07
2023-11-02T00:55:36.562Z,9.57
2023-11-02T00:58:09.922Z,10.68
2023-11-02T01:00:55.391Z,15.73
2023-11-02T01:03:23.428Z,13.68
2023-11-02T01:05:51.282Z,18.38
2023-11-02T01:08:21.866Z,22.60
2023-11-02T01:10:49.072Z,27.13
2023-11-02T01:13:19.520Z,29.65
2023-11-02T01:16:08.540Z,25.38
2023-11-02T01:18:36.524Z,34.22
2023-11-02T01:21:06.150Z,43.75
2023-11-02T01:23:34.928Z,36.20
2023-11-02T01:26:03.241Z,38.08
2023-11-02T01:29:03.615Z,42.38
2023-11-02T01:31:35.980Z,43.10
2023-11-02T01:34:05.283Z,36.55
2023-11-02T01:36:40.569Z,31.48
2023-11-02T01:39:16.898Z,26.42
2023-11-02T01:41:44.682Z,18.65
2023-11-02T01:44:21.351Z,14.98
2023-11-02T01:47:35.466Z,10.90
2023-11-02T01:50:11.594Z,10.25
2023-11-02T01:52:53.141Z,12.07
2023-11-02T01:55:32.943Z,10.45
2023-11-02T01:58:06.113Z,10.30
2023-11-02T02:01:01.365Z,8.55
2023-11-02T02:03:41.510Z,8.45
2023-11-02T02:06:40.151Z,8.02
2023-11-02T02:09:38.037Z,8.63
2023-11-02T02:12:45.242Z,8.50
2023-11-02T02:15:28.014Z,7.38
2023-11-02T02:18:13.507Z,8.15
2023-11-02T02:20:48.892Z,9.40
2023-11-02T02:23:46.360Z,8.90
2023-11-02T02:26:31.581Z,11.00
2023-11-02T02:29:19.862Z,8.45
2023-11-02T02:31:56.298Z,8.05
2023-11-02T02:34:43.667Z,10.30
2023-11-02T02:37:24.604Z,7.88
2023-11-02T02:40:00.517Z,6.97
2023-11-02T02:42:30.186Z,7.22
2023-11-02T02:45:00.815Z,7.13
2023-11-02T02:47:28.868Z,9.02
2023-11-02T02:49:58.554Z,8.40
2023-11-02T02:52:29.238Z,8.57
2023-11-02T02:55:00.555Z,7.90
2023-11-02T02:57:32.332Z,8.45
2023-11-02T03:00:01.481Z,10.98
2023-11-02T03:02:32.890Z,6.88
2023-11-02T03:05:00.666Z,7.18
2023-11-02T03:07:31.723Z,7.47
2023-11-02T03:10:04.269Z,9.07
2023-11-02T03:12:34.515Z,8.30
2023-11-02T03:15:07.522Z,6.85
2023-11-02T03:17:42.230Z,6.85
2023-11-02T03:20:11.464Z,8.23
2023-11-02T03:22:43.401Z,7.18
2023-11-02T03:25:39.632Z,8.55
2023-11-02T03:28:30.707Z,9.00
2023-11-02T03:31:03.717Z,8.38
2023-11-02T03:33:43.023Z,9.02
2023-11-02T03:36:18.023Z,9.77
2023-11-02T03:38:54.015Z,8.73
2023-11-02T03:41:42.527Z,7.05
2023-11-02T03:44:24.619Z,7.63
2023-11-02T03:47:07.680Z,5.82
2023-11-02T03:49:53.735Z,8.20
2023-11-02T03:52:41.565Z,6.32
2023-11-02T03:55:37.512Z,8.10
2023-11-02T03:58:33.878Z,6.95
2023-11-02T04:01:09.888Z,6.45
2023-11-02T04:03:40.291Z,7.88
2023-11-02T04:06:12.171Z,6.57
2023-11-02T04:08:43.902Z,4.82
2023-11-02T04:11:25.629Z,6.30
2023-11-02T04:14:11.020Z,6.38
2023-11-02T04:16:38.402Z,6.97
2023-11-02T04:19:05.643Z,6.95
2023-11-02T04:21:33.282Z,6.80
2023-11-02T04:24:00.429Z,6.63
2023-11-02T04:26:30.770Z,6.70
2023-11-02T04:28:58.227Z,9.77
2023-11-02T04:31:25.453Z,5.65
2023-11-02T04:33:52.680Z,6.10
2023-11-02T04:36:19.848Z,7.70
2023-11-02T04:38:50.483Z,7.38
2023-11-02T04:41:17.751Z,7.10
2023-11-02T04:43:44.829Z,5.53
2023-11-02T04:46:11.997Z,4.63
2023-11-02T04:48:39.199Z,7.15
2023-11-02T04:51:07.092Z,8.70
2023-11-02T04:53:34.110Z,5.95
2023-11-02T04:56:01.294Z,5.05
2023-11-02T04:58:28.392Z,6.25
2023-11-02T05:00:55.536Z,6.60
2023-11-02T05:03:22.710Z,7.55
2023-11-02T05:05:49.985Z,6.85
2023-11-02T05:08:17.039Z,5.28
2023-11-02T05:10:44.793Z,9.05
2023-11-02T05:13:11.865Z,6.15
2023-11-02T05:15:54.070Z,5.38
2023-11-02T05:18:24.428Z,5.07
2023-11-02T05:20:59.053Z,6.88
2023-11-02T05:23:26.699Z,8.23
2023-11-02T05:25:53.925Z,7.45
2023-11-02T05:28:22.221Z,7.57
2023-11-02T05:30:49.425Z,4.85
2023-11-02T05:33:16.591Z,7.03
2023-11-02T05:35:43.711Z,8.93
2023-11-02T05:38:10.853Z,6.03
2023-11-02T05:40:37.983Z,8.43
2023-11-02T05:43:05.263Z,5.68
2023-11-02T05:45:32.284Z,5.28
2023-11-02T05:47:59.433Z,6.20
2023-11-02T05:50:27.933Z,7.65
2023-11-02T05:52:58.364Z,4.97
2023-11-02T05:55:25.636Z,4.65
2023-11-02T05:57:55.100Z,7.38
2023-11-02T06:00:23.521Z,3.97
2023-11-02T06:02:50.586Z,7.32
2023-11-02T06:05:17.813Z,7.38
2023-11-02T06:07:44.817Z,7.93
2023-11-02T06:10:12.076Z,8.00
2023-11-02T06:12:39.342Z,7.60
2023-11-02T06:15:07.239Z,4.97
2023-11-02T06:17:34.331Z,7.88
2023-11-02T06:20:01.490Z,7.25
2023-11-02T06:22:28.614Z,5.78
2023-11-02T06:24:55.607Z,4.18
2023-11-02T06:27:22.831Z,6.05
2023-11-02T06:29:50.034Z,6.30
2023-11-02T06:32:17.296Z,6.68
2023-11-02T06:34:44.404Z,5.72
2023-11-02T06:37:12.978Z,6.57
2023-11-02T06:39:40.339Z,8.93
2023-11-02T06:42:09.539Z,5.90
2023-11-02T06:44:40.534Z,8.45
2023-11-02T06:47:08.116Z,8.38
2023-11-02T06:49:35.375Z,8.55
2023-11-02T06:52:03.835Z,7.38
2023-11-02T06:54:30.984Z,5.82
2023-11-02T06:56:58.813Z,7.75
2023-11-02T06:59:25.907Z,6.68
2023-11-02T07:01:54.352Z,5.15
2023-11-02T07:04:21.900Z,11.13
2023-11-02T07:06:49.389Z,7.65
2023-11-02T07:09:17.278Z,7.22
2023-11-02T07:11:44.506Z,6.63
2023-11-02T07:14:11.630Z,7.43
2023-11-02T07:16:38.901Z,10.40
2023-11-02T07:19:06.701Z,10.07
2023-11-02T07:21:35.441Z,8.00
2023-11-02T07:24:03.822Z,7.47
2023-11-02T07:26:31.120Z,7.20
2023-11-02T07:28:58.764Z,10.02
2023-11-02T07:31:25.998Z,9.07
2023-11-02T07:33:53.149Z,7.35
2023-11-02T07:36:25.606Z,8.23
2023-11-02T07:38:54.339Z,6.53
2023-11-02T07:41:22.429Z,5.30
2023-11-02T07:43:49.718Z,5.30
2023-11-02T07:46:16.791Z,8.95
2023-11-02T07:48:43.929Z,7.60
2023-11-02T07:51:17.203Z,8.23
2023-11-02T07:53:44.393Z,9.68
2023-11-02T07:56:11.576Z,7.35
2023-11-02T07:58:43.657Z,8.70
2023-11-02T08:01:11.306Z,5.85
2023-11-02T08:03:38.536Z,7.30
2023-11-02T08:06:06.221Z,8.38
2023-11-02T08:08:33.492Z,5.60
2023-11-02T08:11:00.659Z,6.25
2023-11-02T08:13:27.685Z,6.68
2023-11-02T08:15:56.845Z,8.50
2023-11-02T08:18:24.327Z,7.53
2023-11-02T08:20:51.419Z,9.82
2023-11-02T08:23:19.931Z,7.20
2023-11-02T08:25:47.207Z,8.75
2023-11-02T08:28:14.785Z,7.75
2023-11-02T08:30:41.876Z,5.47
2023-11-02T08:33:10.649Z,7.60
2023-11-02T08:35:37.822Z,7.93
2023-11-02T08:38:05.017Z,9.68
2023-11-02T08:40:32.190Z,9.10
2023-11-02T08:42:59.553Z,7.82
2023-11-02T08:45:26.655Z,9.38
2023-11-02T08:47:53.752Z,8.95
2023-11-02T08:50:20.848Z,6.13
2023-11-02T08:52:48.564Z,7.53
2023-11-02T08:55:15.631Z,9.05
2023-11-02T08:57:42.789Z,8.13
2023-11-02T09:00:10.440Z,10.32
2023-11-02T09:02:37.945Z,8.32
2023-11-02T09:05:05.488Z,7.72
2023-11-02T09:07:32.691Z,7.18
2023-11-02T09:09:59.757Z,9.02
2023-11-02T09:12:26.874Z,6.90
2023-11-02T09:14:53.968Z,9.57
2023-11-02T09:17:21.039Z,6.93
2023-11-02T09:19:48.266Z,9.13
2023-11-02T09:22:15.415Z,10.02
2023-11-02T09:24:43.125Z,6.78
2023-11-02T09:27:10.276Z,7.78
2023-11-02T09:29:37.401Z,7.70
2023-11-02T09:32:05.111Z,6.32
2023-11-02T09:34:33.240Z,8.15
2023-11-02T09:37:01.254Z,7.68
2023-11-02T09:39:30.604Z,9.43
2023-11-02T09:41:57.783Z,7.63
2023-11-02T09:44:27.617Z,6.70
2023-11-02T09:46:54.977Z,7.07
2023-11-02T09:49:22.283Z,7.53
2023-11-02T09:51:49.506Z,6.03
2023-11-02T09:54:16.783Z,9.35
2023-11-02T09:56:45.072Z,6.18
2023-11-02T09:59:12.968Z,7.28
2023-11-02T10:01:40.529Z,7.03
2023-11-02T10:04:07.917Z,6.82
2023-11-02T10:06:37.007Z,7.20
2023-11-02T10:09:05.409Z,7.65
2023-11-02T10:11:32.665Z,5.30
2023-11-02T10:14:00.042Z,7.38
2023-11-02T10:16:27.293Z,6.88
2023-11-02T10:18:54.750Z,4.95
2023-11-02T10:21:22.070Z,6.13
2023-11-02T10:23:56.076Z,10.35
2023-11-02T10:26:30.131Z,5.57
2023-11-02T10:29:00.302Z,3.78
2023-11-02T10:31:31.933Z,4.47
2023-11-02T10:34:02.733Z,5.05
2023-11-02T10:36:34.677Z,3.30
2023-11-02T10:39:02.034Z,8.55
2023-11-02T10:41:29.976Z,5.15
2023-11-02T10:44:00.507Z,7.50
2023-11-02T10:46:29.112Z,6.10
2023-11-02T10:49:03.006Z,5.35
2023-11-02T10:51:31.904Z,4.03
2023-11-02T10:54:17.632Z,4.13
2023-11-02T10:56:50.345Z,10.40
2023-11-02T10:59:19.046Z,8.63
2023-11-02T11:01:46.671Z,5.75
2023-11-02T11:04:14.916Z,4.93
2023-11-02T11:06:44.980Z,6.70
2023-11-02T11:09:14.045Z,5.03
2023-11-02T11:11:41.512Z,8.20
2023-11-02T11:14:10.902Z,5.00
2023-11-02T11:16:42.023Z,4.97
2023-11-02T11:19:09.779Z,7.15
2023-11-02T11:21:39.977Z,7.18
2023-11-02T11:24:14.269Z,10.75
2023-11-02T11:26:53.502Z,7.35
2023-11-02T11:29:41.335Z,13.35
2023-11-02T11:32:10.343Z,6.50
2023-11-02T11:34:58.772Z,4.63
2023-11-02T11:37:50.931Z,4.07
2023-11-02T11:40:21.217Z,14.60
2023-11-02T11:43:01.459Z,9.57
2023-11-02T11:45:33.044Z,5.15
2023-11-02T11:48:09.154Z,8.65
2023-11-02T11:50:39.366Z,11.23
2023-11-02T11:53:24.494Z,5.05
2023-11-02T11:55:53.380Z,4.85
2023-11-02T11:58:46.432Z,8.98
2023-11-02T12:01:19.316Z,14.35
2023-11-02T12:03:48.585Z,6.55
2023-11-02T12:06:16.938Z,7.07
2023-11-02T12:08:49.209Z,8.57
2023-11-02T12:11:26.654Z,4.05
2023-11-02T12:14:02.269Z,4.75
2023-11-02T12:16:34.350Z,5.93
2023-11-02T12:19:02.818Z,5.60
2023-11-02T12:21:30.220Z,3.65
2023-11-02T12:23:58.339Z,5.47
2023-11-02T12:26:27.438Z,5.63
2023-11-02T12:28:59.192Z,5.55
2023-11-02T12:31:31.343Z,7.22
2023-11-02T12:34:03.721Z,5.20
2023-11-02T12:36:31.265Z,5.30
2023-11-02T12:38:58.286Z,5.20
2023-11-02T12:41:31.042Z,4.13
2023-11-02T12:44:14.013Z,5.90
2023-11-02T12:46:49.465Z,7.15
2023-11-02T12:49:22.524Z,6.22
2023-11-02T12:52:01.765Z,9.33
2023-11-02T12:54:32.878Z,7.72
2023-11-02T12:57:08.698Z,5.05
2023-11-02T12:59:41.805Z,4.10
2023-11-02T13:02:12.679Z,3.22
2023-11-02T13:05:07.392Z,7.60
2023-11-02T13:07:37.419Z,6.03
2023-11-02T13:10:11.506Z,6.60
2023-11-02T13:12:41.079Z,3.17
2023-11-02T13:15:10.301Z,4.20
2023-11-02T13:17:40.090Z,4.82
2023-11-02T13:20:10.840Z,5.13
2023-11-02T13:22:39.083Z,4.10
2023-11-02T13:25:08.329Z,3.20
2023-11-02T13:27:36.390Z,5.30
2023-11-02T13:30:04.513Z,7.43
2023-11-02T13:32:31.834Z,6.55
2023-11-02T13:34:59.069Z,3.47
2023-11-02T13:37:28.174Z,2.53
2023-11-02T13:39:55.417Z,3.65
2023-11-02T13:42:23.279Z,4.13
2023-11-02T13:44:50.437Z,4.95
2023-11-02T13:47:18.512Z,3.83
2023-11-02T13:49:45.605Z,3.33
2023-11-02T13:52:12.918Z,4.72
2023-11-02T13:54:40.007Z,6.35
2023-11-02T13:57:07.130Z,4.75
2023-11-02T13:59:34.120Z,3.13
2023-11-02T14:02:01.452Z,8.40
2023-11-02T14:04:28.735Z,7.38
2023-11-02T14:06:58.048Z,3.70
2023-11-02T14:09:25.692Z,6.63
2023-11-02T14:11:52.761Z,4.70
2023-11-02T14:14:19.828Z,5.75
2023-11-02T14:16:46.876Z,6.43
2023-11-02T14:19:14.040Z,4.85
2023-11-02T14:21:41.230Z,7.32
2023-11-02T14:24:08.866Z,7.07
2023-11-02T14:26:36.366Z,7.85
2023-11-02T14:29:03.550Z,2.97
2023-11-02T14:31:30.758Z,8.05
2023-11-02T14:33:57.925Z,5.35
2023-11-02T14:36:25.688Z,7.35
2023-11-02T14:38:54.362Z,7.85
2023-11-02T14:41:22.574Z,3.75
2023-11-02T14:43:49.629Z,4.53
2023-11-02T14:46:16.876Z,7.60
2023-11-02T14:48:44.141Z,7.20
2023-11-02T14:51:11.458Z,2.25
2023-11-02T14:53:38.830Z,4.32
2023-11-02T14:56:06.436Z,7.18
2023-11-02T14:58:34.324Z,3.05
2023-11-02T15:01:02.877Z,5.85
2023-11-02T15:03:30.206Z,4.30
2023-11-02T15:05:57.945Z,8.18
2023-11-02T15:08:25.419Z,5.00
2023-11-02T15:10:52.526Z,7.55
2023-11-02T15:13:20.258Z,8.82
2023-11-02T15:15:47.494Z,9.05
2023-11-02T15:18:14.650Z,7.10
2023-11-02T15:20:41.742Z,14.32
2023-11-02T15:23:08.802Z,10.98
2023-11-02T15:25:35.878Z,8.25
2023-11-02T15:28:04.666Z,9.32
2023-11-02T15:30:31.897Z,10.70
2023-11-02T15:32:59.029Z,6.50
2023-11-02T15:35:26.126Z,11.13
2023-11-02T15:37:53.255Z,6.32
2023-11-02T15:40:20.268Z,6.05
2023-11-02T15:42:47.452Z,4.65
2023-11-02T15:45:14.705Z,8.95
2023-11-02T15:47:41.986Z,4.93
2023-11-02T15:50:09.885Z,5.47
2023-11-02T15:52:45.116Z,4.78
2023-11-02T15:55:12.667Z,5.22
2023-11-02T15:57:44.523Z,5.85
2023-11-02T16:00:13.318Z,5.72
2023-11-02T16:02:41.126Z,9.63
2023-11-02T16:05:08.622Z,6.18
2023-11-02T16:07:36.850Z,6.60
2023-11-02T16:10:04.172Z,11.02
2023-11-02T16:12:31.248Z,10.30
2023-11-02T16:14:58.398Z,7.55
2023-11-02T16:17:25.455Z,10.98
2023-11-02T16:19:53.444Z,6.40
2023-11-02T16:22:20.751Z,7.70
2023-11-02T16:24:48.017Z,4.97
2023-11-02T16:27:15.568Z,9.15
2023-11-02T16:29:43.396Z,12.13
2023-11-02T16:32:10.464Z,5.57
2023-11-02T16:34:43.285Z,8.50
2023-11-02T16:37:12.673Z,6.25
2023-11-02T16:39:44.405Z,6.85
2023-11-02T16:42:11.753Z,4.13
2023-11-02T16:44:38.790Z,5.68
2023-11-02T16:47:07.600Z,5.22
2023-11-02T16:49:35.028Z,7.45
2023-11-02T16:52:05.308Z,6.80
2023-11-02T16:54:33.348Z,6.40
2023-11-02T16:57:00.447Z,7.60
2023-11-02T16:59:27.638Z,8.57
2023-11-02T17:01:55.618Z,6.70
2023-11-02T17:04:22.918Z,5.53
2023-11-02T17:06:51.897Z,7.55
2023-11-02T17:09:19.484Z,6.07
2023-11-02T17:11:46.676Z,8.18
2023-11-02T17:14:13.711Z,11.18
2023-11-02T17:16:41.829Z,8.57
2023-11-02T17:19:11.139Z,10.52
2023-11-02T17:21:40.063Z,9.10
2023-11-02T17:24:07.725Z,15.02
2023-11-02T17:26:34.935Z,11.55
2023-11-02T17:29:01.976Z,10.75
2023-11-02T17:31:30.803Z,8.02
2023-11-02T17:33:58.369Z,11.60
2023-11-02T17:36:25.542Z,11.45
2023-11-02T17:38:52.639Z,8.50
2023-11-02T17:41:19.897Z,7.78
2023-11-02T17:43:47.029Z,8.65
2023-11-02T17:46:17.418Z,10.50
2023-11-02T17:48:45.154Z,10.40
2023-11-02T17:51:12.463Z,8.95
2023-11-02T17:53:39.564Z,9.35
2023-11-02T17:56:07.134Z,10.05
2023-11-02T17:58:34.262Z,7.63
2023-11-02T18:01:01.592Z,10.75
2023-11-02T18:03:29.277Z,7.32
2023-11-02T18:05:56.587Z,9.23
2023-11-02T18:08:23.728Z,18.02
2023-11-02T18:10:51.081Z,9.73
2023-11-02T18:13:18.252Z,9.32
2023-11-02T18:15:50.802Z,9.75
2023-11-02T18:18:20.926Z,6.75
2023-11-02T18:20:48.118Z,6.65
2023-11-02T18:23:16.647Z,8.40
2023-11-02T18:25:43.950Z,10.05
2023-11-02T18:28:11.037Z,7.90
2023-11-02T18:30:38.500Z,8.25
2023-11-02T18:33:05.787Z,7.88
2023-11-02T18:35:32.986Z,7.78
2023-11-02T18:38:00.200Z,8.48
2023-11-02T18:40:27.581Z,12.98
2023-11-02T18:42:54.985Z,8.40
2023-11-02T18:45:22.379Z,11.20
2023-11-02T18:47:49.611Z,6.68
2023-11-02T18:50:17.637Z,9.60
2023-11-02T18:52:44.806Z,8.02
2023-11-02T18:55:12.030Z,10.95
2023-11-02T18:57:39.188Z,7.10
2023-11-02T19:00:08.511Z,11.73
2023-11-02T19:02:40.450Z,9.32
2023-11-02T19:05:09.027Z,9.07
2023-11-02T19:07:39.125Z,12.88
2023-11-02T19:10:07.467Z,9.10
2023-11-02T19:12:34.531Z,13.30
2023-11-02T19:15:01.622Z,10.73
2023-11-02T19:17:29.312Z,6.38
2023-11-02T19:19:56.559Z,11.90
2023-11-02T19:22:23.654Z,7.75
2023-11-02T19:24:50.680Z,9.50
2023-11-02T19:27:19.903Z,6.22
2023-11-02T19:29:47.232Z,8.68
2023-11-02T19:32:14.212Z,6.60
2023-11-02T19:34:41.339Z,7.10
2023-11-02T19:37:08.496Z,7.82
2023-11-02T19:39:35.909Z,7.18
2023-11-02T19:42:03.536Z,7.65
2023-11-02T19:44:30.817Z,9.43
2023-11-02T19:46:57.820Z,9.10
2023-11-02T19:49:25.078Z,5.85
2023-11-02T19:51:52.331Z,10.07
2023-11-02T19:54:19.518Z,7.95
2023-11-02T19:56:47.130Z,7.50
2023-11-02T19:59:14.544Z,7.28
2023-11-02T20:01:42.082Z,7.28
2023-11-02T20:04:12.521Z,12.18
2023-11-02T20:06:40.814Z,8.60
2023-11-02T20:09:09.859Z,7.28
2023-11-02T20:11:37.781Z,7.78
2023-11-02T20:14:05.668Z,7.30
2023-11-02T20:16:33.208Z,9.55
2023-11-02T20:19:00.382Z,10.02
2023-11-02T20:21:27.671Z,10.57
2023-11-02T20:23:54.814Z,8.48
2023-11-02T20:26:22.222Z,8.63
2023-11-02T20:28:49.444Z,8.55
2023-11-02T20:31:16.605Z,9.73
2023-11-02T20:33:44.041Z,11.00
2023-11-02T20:36:11.544Z,9.05
2023-11-02T20:38:39.326Z,9.57
2023-11-02T20:41:07.304Z,13.10
2023-11-02T20:43:36.594Z,7.72
2023-11-02T20:46:04.307Z,7.53
2023-11-02T20:48:35.372Z,7.88
2023-11-02T20:51:07.073Z,9.30
2023-11-02T20:53:34.212Z,6.38
2023-11-02T20:56:01.460Z,7.68
2023-11-02T20:58:28.736Z,8.35
2023-11-02T21:00:56.524Z,7.95
2023-11-02T21:03:23.880Z,6.82
2023-11-02T21:05:54.859Z,5.72
2023-11-02T21:08:22.057Z,8.57
2023-11-02T21:10:49.633Z,10.40
2023-11-02T21:13:18.911Z,8.15
2023-11-02T21:15:46.708Z,10.48
2023-11-02T21:18:14.173Z,7.03
2023-11-02T21:20:41.456Z,8.18
2023-11-02T21:23:08.605Z,6.40
2023-11-02T21:25:35.814Z,7.88
2023-11-02T21:28:03.050Z,6.90
2023-11-02T21:30:30.493Z,6.53
2023-11-02T21:32:58.713Z,7.97
2023-11-02T21:35:26.226Z,4.85
2023-11-02T21:37:53.947Z,6.10
2023-11-02T21:40:21.757Z,6.07
2023-11-02T21:42:49.442Z,5.90
2023-11-02T21:45:18.879Z,4.82
2023-11-02T21:47:46.243Z,4.65
2023-11-02T21:50:13.594Z,3.65
2023-11-02T21:52:40.930Z,4.90
2023-11-02T21:55:09.306Z,4.68
2023-11-02T21:57:36.476Z,7.07
2023-11-02T22:00:08.107Z,6.80
2023-11-02T22:02:35.540Z,7.75
2023-11-02T22:05:07.396Z,5.57
2023-11-02T22:07:34.597Z,7.80
2023-11-02T22:10:01.910Z,6.75
2023-11-02T22:12:29.453Z,6.30
2023-11-02T22:14:56.536Z,6.35
2023-11-02T22:17:23.763Z,5.80
2023-11-02T22:19:50.864Z,4.40
2023-11-02T22:22:18.012Z,5.35
2023-11-02T22:24:45.279Z,5.07
2023-11-02T22:27:12.529Z,6.95
2023-11-02T22:29:41.199Z,5.30
2023-11-02T22:32:08.767Z,11.18
2023-11-02T22:34:36.183Z,6.25
2023-11-02T22:37:03.674Z,3.95
2023-11-02T22:39:30.905Z,4.70
2023-11-02T22:41:58.177Z,6.55
2023-11-02T22:44:26.281Z,5.40
2023-11-02T22:46:53.392Z,7.15
2023-11-02T22:49:20.801Z,3.45
2023-11-02T22:51:49.151Z,7.10
2023-11-02T22:54:17.122Z,4.35
2023-11-02T22:56:45.030Z,4.88
2023-11-02T22:59:12.142Z,5.00
2023-11-02T23:01:39.307Z,6.13
2023-11-02T23:04:06.621Z,6.13
2023-11-02T23:06:34.237Z,3.65
2023-11-02T23:09:01.316Z,4.75
2023-11-02T23:11:28.486Z,7.40
2023-11-02T23:13:55.576Z,5.15
2023-11-02T23:16:23.056Z,3.40
2023-11-02T23:18:50.522Z,3.67
2023-11-02T23:21:18.221Z,3.35
2023-11-02T23:23:45.958Z,3.75
2023-11-02T23:26:13.586Z,4.40
2023-11-02T23:28:40.782Z,4.10
2023-11-02T23:31:08.490Z,4.47
2023-11-02T23:33:35.826Z,6.43
2023-11-02T23:36:03.694Z,3.17
2023-11-02T23:38:31.540Z,4.18
2023-11-02T23:40:58.608Z,4.13
2023-11-02T23:43:25.932Z,4.38
2023-11-02T23:45:53.116Z,4.28
2023-11-02T23:48:20.327Z,4.32
2023-11-02T23:50:47.380Z,6.72
2023-11-02T23:53:14.673Z,4.57
2023-11-02T23:55:41.680Z,3.58
2023-11-02T23:58:08.836Z,6.38
